Time;durP1;ratioP1;P1;durP2;ratioP2;P2;SDS_P1;SDS_P2;PMS_P1;PMS_P2;Temp;Humidity;BMP_temperature;BMP_pressure;BME280_temperature;BME280_humidity;BME280_pressure;Samples;Min_cycle;Max_cycle;Signal;HPM_P1;HPM_P2
2022/09/30 00:00:53;;;;;;;4.15;3.30;;;8.40;99.90;;;;;;4977383;28;20015;-82
2022/09/30 00:03:20;;;;;;;4.55;3.03;;;8.40;99.90;;;;;;4992632;28;20019;-82
2022/09/30 00:05:46;;;;;;;4.72;3.22;;;8.40;99.90;;;;;;4961121;28;20480;-83
2022/09/30 00:08:12;;;;;;;4.85;2.83;;;8.40;99.90;;;;;;4976574;28;20101;-82
2022/09/30 00:10:38;;;;;;;3.78;3.08;;;8.30;99.90;;;;;;4977466;28;20050;-82
2022/09/30 00:13:05;;;;;;;4.43;3.20;;;8.30;99.90;;;;;;4971859;28;20065;-79
2022/09/30 00:15:31;;;;;;;4.05;2.92;;;8.20;99.90;;;;;;4996973;28;20030;-80
2022/09/30 00:17:58;;;;;;;4.38;3.03;;;8.20;99.90;;;;;;4999213;28;20019;-82
2022/09/30 00:20:24;;;;;;;3.83;2.70;;;8.20;99.90;;;;;;4977595;28;20450;-83
2022/09/30 00:22:50;;;;;;;4.93;3.00;;;8.10;99.90;;;;;;4977417;28;20455;-83
2022/09/30 00:25:16;;;;;;;4.05;2.45;;;8.10;99.90;;;;;;4976426;28;20030;-83
2022/09/30 00:27:42;;;;;;;3.58;2.70;;;8.10;99.90;;;;;;4976741;28;20027;-83
2022/09/30 00:30:09;;;;;;;4.05;3.10;;;8.10;99.90;;;;;;4976177;28;20078;-81
2022/09/30 00:32:34;;;;;;;4.35;2.85;;;8.00;99.90;;;;;;4976388;28;20049;-83
2022/09/30 00:35:00;;;;;;;4.63;2.63;;;8.00;99.90;;;;;;4976387;28;20450;-82
2022/09/30 00:37:26;;;;;;;4.80;3.08;;;8.00;99.90;;;;;;4992246;28;20019;-83
2022/09/30 00:39:52;;;;;;;4.15;2.88;;;8.00;99.90;;;;;;4975502;28;20014;-83
2022/09/30 00:42:18;;;;;;;5.25;2.75;;;8.00;99.90;;;;;;4977346;28;20035;-83
2022/09/30 00:44:47;;;;;;;3.90;2.50;;;8.00;99.90;;;;;;4977014;28;20030;-83
2022/09/30 00:47:37;;;;;;;4.60;2.72;;;8.00;99.90;;;;;;4975846;28;20039;-83
2022/09/30 00:50:19;;;;;;;3.72;2.47;;;8.00;99.90;;;;;;4975236;28;20034;-83
2022/09/30 00:53:11;;;;;;;3.38;2.50;;;8.00;99.90;;;;;;4975731;28;20051;-83
2022/09/30 00:55:48;;;;;;;3.60;2.78;;;7.90;99.90;;;;;;4970544;28;21975;-83
2022/09/30 00:58:24;;;;;;;4.07;2.40;;;7.90;99.90;;;;;;4959331;28;20058;-83
2022/09/30 01:00:50;;;;;;;4.15;2.88;;;7.80;99.90;;;;;;4960979;28;20351;-83
2022/09/30 01:03:16;;;;;;;4.43;2.65;;;7.80;99.90;;;;;;4974955;28;20106;-83
2022/09/30 01:05:43;;;;;;;4.05;2.60;;;7.80;99.90;;;;;;4963238;28;20023;-83
2022/09/30 01:08:10;;;;;;;3.42;2.42;;;7.80;99.90;;;;;;4976924;28;20460;-83
2022/09/30 01:10:37;;;;;;;4.28;2.65;;;7.80;99.90;;;;;;4975474;28;20455;-83
2022/09/30 01:13:03;;;;;;;4.25;2.75;;;7.80;99.90;;;;;;4968698;28;20033;-83
2022/09/30 01:16:11;;;;;;;3.22;2.30;;;7.70;99.90;;;;;;4969048;28;20022;-83
2022/09/30 01:18:48;;;;;;;4.20;2.67;;;7.70;99.90;;;;;;4932984;29;20044;-83
2022/09/30 01:21:59;;;;;;;2.72;2.25;;;7.60;99.90;;;;;;4975234;28;20019;-83
2022/09/30 01:24:33;;;;;;;3.53;2.25;;;7.60;99.90;;;;;;4964578;28;20441;-82
2022/09/30 01:27:17;;;;;;;3.72;2.30;;;7.50;99.90;;;;;;4974943;28;20015;-83
2022/09/30 01:29:49;;;;;;;3.50;2.55;;;7.50;99.90;;;;;;4971604;28;20012;-83
2022/09/30 01:32:39;;;;;;;5.03;2.50;;;7.50;99.90;;;;;;4966404;28;20030;-83
2022/09/30 01:35:20;;;;;;;3.85;2.47;;;7.50;99.90;;;;;;4961649;28;20107;-83
2022/09/30 01:38:05;;;;;;;3.33;2.38;;;7.50;99.90;;;;;;4975818;28;20117;-82
2022/09/30 01:41:09;;;;;;;4.07;2.30;;;7.50;99.90;;;;;;4975116;28;20038;-83
2022/09/30 01:43:43;;;;;;;3.65;2.25;;;7.50;99.90;;;;;;4975178;28;20031;-84
2022/09/30 01:46:43;;;;;;;3.63;2.45;;;7.50;99.90;;;;;;4981640;28;20419;-83
2022/09/30 01:49:19;;;;;;;4.10;2.20;;;7.40;99.90;;;;;;4984354;28;20027;-83
2022/09/30 01:52:17;;;;;;;3.25;2.00;;;7.40;99.90;;;;;;4974663;28;20073;-83
2022/09/30 01:55:02;;;;;;;3.50;2.40;;;7.40;99.90;;;;;;4974869;28;20023;-83
2022/09/30 01:57:32;;;;;;;2.85;2.05;;;7.40;99.90;;;;;;4979366;28;20062;-83
2022/09/30 02:00:06;;;;;;;3.15;2.30;;;7.30;99.90;;;;;;4974638;28;20015;-83
2022/09/30 02:02:40;;;;;;;3.53;2.17;;;7.30;99.90;;;;;;4975070;28;20070;-83
2022/09/30 02:05:15;;;;;;;2.72;2.03;;;7.30;99.90;;;;;;4961212;28;20028;-83
2022/09/30 02:07:48;;;;;;;2.63;1.98;;;7.30;99.90;;;;;;4974280;28;20122;-83
2022/09/30 02:10:37;;;;;;;3.17;2.20;;;7.20;99.90;;;;;;4974738;28;20450;-83
2022/09/30 02:13:26;;;;;;;3.47;2.33;;;7.20;99.90;;;;;;4978302;28;20037;-79
2022/09/30 02:15:56;;;;;;;3.67;2.08;;;7.10;99.90;;;;;;4993956;28;20103;-81
2022/09/30 02:18:39;;;;;;;3.03;2.05;;;7.10;99.90;;;;;;4996822;28;20073;-82
2022/09/30 02:21:08;;;;;;;3.47;2.17;;;7.20;99.90;;;;;;4975988;28;20443;-83
2022/09/30 02:23:39;;;;;;;3.55;2.25;;;7.20;99.90;;;;;;4975128;28;20429;-83
2022/09/30 02:26:12;;;;;;;2.95;2.13;;;7.20;99.90;;;;;;4974162;28;20019;-83
2022/09/30 02:28:48;;;;;;;2.63;1.90;;;7.10;99.90;;;;;;4975303;28;20074;-83
2022/09/30 02:31:17;;;;;;;2.85;1.98;;;7.20;99.90;;;;;;4975007;28;20026;-83
2022/09/30 02:33:51;;;;;;;3.33;1.90;;;7.10;99.90;;;;;;4974660;28;20065;-83
2022/09/30 02:36:24;;;;;;;3.55;1.98;;;7.10;99.90;;;;;;4974445;28;20462;-82
2022/09/30 02:39:04;;;;;;;4.55;2.88;;;7.10;99.90;;;;;;4974423;28;20033;-82
2022/09/30 02:41:37;;;;;;;3.78;2.35;;;7.00;99.90;;;;;;4976753;28;20038;-82
2022/09/30 02:44:04;;;;;;;3.70;2.35;;;7.00;99.90;;;;;;4975795;28;20404;-82
2022/09/30 02:46:42;;;;;;;3.67;2.45;;;7.00;99.90;;;;;;4973760;28;20021;-82
2022/09/30 02:49:40;;;;;;;3.20;2.30;;;7.00;99.90;;;;;;4973896;28;20138;-83
2022/09/30 02:52:28;;;;;;;3.67;2.30;;;6.90;99.90;;;;;;4971300;28;20027;-82
2022/09/30 02:55:25;;;;;;;3.53;2.10;;;6.90;99.90;;;;;;4974296;28;20026;-82
2022/09/30 02:58:24;;;;;;;3.17;2.25;;;6.90;99.90;;;;;;4973960;28;20119;-82
2022/09/30 03:00:50;;;;;;;5.32;2.40;;;6.90;99.90;;;;;;4973961;28;20034;-82
2022/09/30 03:03:22;;;;;;;2.92;2.03;;;6.80;99.90;;;;;;4973798;28;20018;-82
2022/09/30 03:05:49;;;;;;;4.15;2.50;;;6.80;99.90;;;;;;4973805;28;20050;-83
2022/09/30 03:08:16;;;;;;;3.60;2.25;;;6.80;99.90;;;;;;4989756;28;20025;-83
2022/09/30 03:10:45;;;;;;;3.35;2.28;;;6.80;99.90;;;;;;4957631;28;20462;-83
2022/09/30 03:13:20;;;;;;;3.67;2.30;;;6.70;99.90;;;;;;4960598;28;20026;-83
2022/09/30 03:16:01;;;;;;;3.88;2.30;;;6.70;99.90;;;;;;4977443;28;20478;-82
2022/09/30 03:18:35;;;;;;;3.13;2.00;;;6.70;99.90;;;;;;4977662;28;20077;-82
2022/09/30 03:21:13;;;;;;;3.67;2.17;;;6.70;99.90;;;;;;4977689;28;20022;-83
2022/09/30 03:24:03;;;;;;;2.60;1.85;;;6.70;99.90;;;;;;4977360;28;20089;-82
2022/09/30 03:26:35;;;;;;;3.10;1.90;;;6.70;99.90;;;;;;4982066;28;20166;-83
2022/09/30 03:29:23;;;;;;;3.67;2.28;;;6.60;99.90;;;;;;4993663;28;20422;-81
2022/09/30 03:32:17;;;;;;;2.80;2.03;;;6.60;99.90;;;;;;4977250;28;20493;-82
2022/09/30 03:35:02;;;;;;;3.95;2.40;;;6.60;99.90;;;;;;4958315;28;20038;-82
2022/09/30 03:37:50;;;;;;;3.53;2.10;;;6.60;99.90;;;;;;4977045;28;20473;-81
2022/09/30 03:40:42;;;;;;;2.70;1.90;;;6.60;99.90;;;;;;4977152;28;20069;-82
2022/09/30 03:43:45;;;;;;;3.22;2.15;;;6.60;99.90;;;;;;4977182;28;20066;-82
2022/09/30 03:46:28;;;;;;;3.83;2.50;;;6.70;99.90;;;;;;4967905;28;20031;-82
2022/09/30 03:49:00;;;;;;;3.78;2.70;;;6.60;99.90;;;;;;4976791;28;20039;-82
2022/09/30 03:51:28;;;;;;;5.60;2.92;;;6.70;99.90;;;;;;4976685;28;20015;-82
2022/09/30 03:53:55;;;;;;;4.03;2.65;;;6.70;99.90;;;;;;4977117;28;20027;-83
2022/09/30 03:56:29;;;;;;;4.18;2.50;;;6.60;99.90;;;;;;4976393;28;20039;-82
2022/09/30 03:58:57;;;;;;;4.35;2.67;;;6.70;99.90;;;;;;4977703;28;20462;-83
2022/09/30 04:01:23;;;;;;;3.25;2.20;;;6.60;99.90;;;;;;4981651;28;20394;-83
2022/09/30 04:03:53;;;;;;;4.22;2.30;;;6.60;99.90;;;;;;4985680;28;20046;-82
2022/09/30 04:06:24;;;;;;;4.47;2.75;;;6.60;99.90;;;;;;4978851;28;20034;-82
2022/09/30 04:08:50;;;;;;;4.25;2.60;;;6.60;99.90;;;;;;4985123;28;20019;-82
2022/09/30 04:11:16;;;;;;;3.42;2.10;;;6.60;99.90;;;;;;4978591;28;20110;-81
2022/09/30 04:13:42;;;;;;;4.15;2.60;;;6.50;99.90;;;;;;4977754;28;20034;-82
2022/09/30 04:16:08;;;;;;;3.78;2.45;;;6.50;99.90;;;;;;4985451;28;20023;-79
2022/09/30 04:18:37;;;;;;;4.70;2.65;;;6.50;99.90;;;;;;4982265;28;20026;-80
2022/09/30 04:21:12;;;;;;;4.05;2.55;;;6.60;99.90;;;;;;5000534;28;20022;-80
2022/09/30 04:23:39;;;;;;;4.63;3.13;;;6.60;99.90;;;;;;4984743;28;20109;-82
2022/09/30 04:26:07;;;;;;;4.22;2.60;;;6.60;99.90;;;;;;4977351;28;20034;-82
2022/09/30 04:28:34;;;;;;;4.60;2.80;;;6.50;99.90;;;;;;4977103;28;20023;-83
2022/09/30 04:31:01;;;;;;;4.88;2.85;;;6.50;99.90;;;;;;4977294;28;20091;-83
2022/09/30 04:33:27;;;;;;;4.22;2.65;;;6.50;99.90;;;;;;4976762;28;20085;-82
2022/09/30 04:35:57;;;;;;;4.28;2.45;;;6.40;99.90;;;;;;4976807;28;20467;-83
2022/09/30 04:38:24;;;;;;;4.13;2.63;;;6.50;99.90;;;;;;4973348;28;20031;-83
2022/09/30 04:40:51;;;;;;;4.35;2.55;;;6.40;99.90;;;;;;4976303;28;20362;-83
2022/09/30 04:43:18;;;;;;;4.43;2.60;;;6.50;99.90;;;;;;4975689;28;20030;-83
2022/09/30 04:45:47;;;;;;;5.43;3.13;;;6.40;99.90;;;;;;4975907;28;20019;-83
2022/09/30 04:48:14;;;;;;;4.38;2.67;;;6.40;99.90;;;;;;4977622;28;20055;-83
2022/09/30 04:50:41;;;;;;;5.03;2.97;;;6.40;99.90;;;;;;4976157;28;20331;-83
2022/09/30 04:53:11;;;;;;;6.07;2.97;;;6.40;99.90;;;;;;4975528;28;20481;-83
2022/09/30 04:55:36;;;;;;;5.70;2.90;;;6.40;99.90;;;;;;4975406;28;20035;-83
2022/09/30 04:58:03;;;;;;;6.30;3.13;;;6.40;99.90;;;;;;4974083;28;20447;-83
2022/09/30 05:00:29;;;;;;;6.43;3.90;;;6.40;99.90;;;;;;4976089;28;20027;-83
2022/09/30 05:02:55;;;;;;;4.93;2.92;;;6.40;99.90;;;;;;4991936;28;20454;-83
2022/09/30 05:05:20;;;;;;;6.43;3.35;;;6.40;99.90;;;;;;4962888;28;20034;-83
2022/09/30 05:07:46;;;;;;;4.43;3.05;;;6.30;99.90;;;;;;4975407;28;20023;-83
2022/09/30 05:10:12;;;;;;;5.60;2.90;;;6.30;99.90;;;;;;4975239;28;20117;-83
2022/09/30 05:12:39;;;;;;;4.72;3.22;;;6.30;99.90;;;;;;4959429;28;20035;-83
2022/09/30 05:15:07;;;;;;;5.32;3.42;;;6.30;99.90;;;;;;4975426;28;20371;-83
2022/09/30 05:17:34;;;;;;;5.03;3.10;;;6.20;99.90;;;;;;4971205;28;20016;-83
2022/09/30 05:20:00;;;;;;;5.22;3.65;;;6.20;99.90;;;;;;4966620;28;20068;-83
2022/09/30 05:22:26;;;;;;;6.63;3.60;;;6.20;99.90;;;;;;4975176;28;20045;-83
2022/09/30 05:24:57;;;;;;;6.38;3.85;;;6.20;99.90;;;;;;4975179;28;20081;-83
2022/09/30 05:27:24;;;;;;;7.00;3.33;;;6.20;99.90;;;;;;4975095;28;20023;-83
2022/09/30 05:29:52;;;;;;;6.15;3.22;;;6.20;99.90;;;;;;4959109;28;20033;-84
2022/09/30 05:32:20;;;;;;;7.00;3.80;;;6.20;99.90;;;;;;4975062;28;20026;-83
2022/09/30 05:34:46;;;;;;;5.85;3.03;;;6.20;99.90;;;;;;4975397;28;20049;-83
2022/09/30 05:37:12;;;;;;;5.18;3.08;;;6.20;99.90;;;;;;4976337;28;20025;-82
2022/09/30 05:39:38;;;;;;;6.05;2.88;;;6.20;99.90;;;;;;4974674;28;20110;-83
2022/09/30 05:42:04;;;;;;;5.28;3.25;;;6.20;99.90;;;;;;4974660;28;20029;-82
2022/09/30 05:44:30;;;;;;;6.28;3.50;;;6.20;99.90;;;;;;4974868;28;20035;-82
2022/09/30 05:47:01;;;;;;;6.07;3.08;;;6.30;99.90;;;;;;4975001;28;20033;-82
2022/09/30 05:49:29;;;;;;;5.60;3.50;;;6.20;99.90;;;;;;4974434;28;20115;-82
2022/09/30 05:51:56;;;;;;;5.18;2.92;;;6.20;99.90;;;;;;4975696;28;20089;-82
2022/09/30 05:54:22;;;;;;;6.05;3.13;;;6.20;99.90;;;;;;4958336;28;20027;-82
2022/09/30 05:56:51;;;;;;;6.75;3.15;;;6.10;99.90;;;;;;4962621;28;20047;-82
2022/09/30 05:59:18;;;;;;;5.15;3.05;;;6.10;99.90;;;;;;4974594;28;20377;-82
2022/09/30 06:01:44;;;;;;;6.05;3.35;;;6.10;99.90;;;;;;4974367;28;20025;-84
2022/09/30 06:04:10;;;;;;;4.90;2.85;;;6.20;99.90;;;;;;4970031;28;20027;-84
2022/09/30 06:06:35;;;;;;;6.90;3.10;;;6.20;99.90;;;;;;4967251;28;20015;-83
2022/09/30 06:09:01;;;;;;;4.55;3.13;;;6.20;99.90;;;;;;4974360;28;20042;-82
2022/09/30 06:11:27;;;;;;;4.45;3.13;;;6.20;99.90;;;;;;4974874;28;20062;-83
2022/09/30 06:13:53;;;;;;;4.88;2.72;;;6.20;99.90;;;;;;4975909;28;20034;-82
2022/09/30 06:16:19;;;;;;;4.63;2.85;;;6.20;99.90;;;;;;4989488;28;20087;-80
2022/09/30 06:18:46;;;;;;;4.20;2.78;;;6.20;99.90;;;;;;4995424;28;20011;-81
2022/09/30 06:21:15;;;;;;;4.30;2.95;;;6.30;99.90;;;;;;4994819;28;20030;-82
2022/09/30 06:23:42;;;;;;;4.65;2.60;;;6.30;99.90;;;;;;4987782;28;20050;-82
2022/09/30 06:26:10;;;;;;;5.40;2.97;;;6.40;99.90;;;;;;4976956;28;20476;-83
2022/09/30 06:28:41;;;;;;;3.53;2.25;;;6.40;99.90;;;;;;4974294;28;20038;-83
2022/09/30 06:31:07;;;;;;;4.25;2.95;;;6.50;99.90;;;;;;4974489;28;20107;-83
2022/09/30 06:33:33;;;;;;;4.57;2.38;;;6.50;99.90;;;;;;4974275;28;20373;-83
2022/09/30 06:36:03;;;;;;;4.75;2.80;;;6.50;99.90;;;;;;4974033;28;20027;-82
2022/09/30 06:38:36;;;;;;;3.13;2.33;;;6.50;99.90;;;;;;4958213;28;20038;-83
2022/09/30 06:41:02;;;;;;;4.40;2.53;;;6.60;99.90;;;;;;4973829;28;20369;-83
2022/09/30 06:43:28;;;;;;;4.22;2.63;;;6.60;99.90;;;;;;4973384;28;20025;-83
2022/09/30 06:45:54;;;;;;;5.30;2.90;;;6.60;99.90;;;;;;4973876;28;20113;-83
2022/09/30 06:48:22;;;;;;;5.70;2.85;;;6.70;99.90;;;;;;4973434;28;20458;-83
2022/09/30 06:50:48;;;;;;;5.53;2.83;;;6.70;99.90;;;;;;4975910;28;20015;-83
2022/09/30 06:53:16;;;;;;;3.97;2.78;;;6.80;99.90;;;;;;4973468;28;20034;-83
2022/09/30 06:55:42;;;;;;;4.72;3.10;;;6.80;99.90;;;;;;4957814;28;20629;-83
2022/09/30 06:58:13;;;;;;;5.00;3.30;;;6.90;99.90;;;;;;4973398;28;20037;-83
2022/09/30 07:00:39;;;;;;;5.85;4.07;;;7.00;99.90;;;;;;4973984;28;20026;-83
2022/09/30 07:03:08;;;;;;;8.23;5.55;;;7.00;99.90;;;;;;4988356;28;20026;-82
2022/09/30 07:05:38;;;;;;;7.38;5.47;;;7.10;99.90;;;;;;4957082;28;20031;-82
2022/09/30 07:08:04;;;;;;;9.55;6.70;;;7.20;99.90;;;;;;4972261;28;20026;-83
2022/09/30 07:10:30;;;;;;;10.23;6.47;;;7.30;99.90;;;;;;4973676;28;20039;-83
2022/09/30 07:13:01;;;;;;;8.40;6.18;;;7.40;99.90;;;;;;4972861;28;20027;-82
2022/09/30 07:15:40;;;;;;;9.35;7.00;;;7.50;99.90;;;;;;4956471;28;20035;-82
2022/09/30 07:18:06;;;;;;;9.30;6.82;;;7.60;99.90;;;;;;4972729;28;20053;-82
2022/09/30 07:20:32;;;;;;;12.88;9.38;;;7.70;99.90;;;;;;4972103;28;20019;-83
2022/09/30 07:22:58;;;;;;;11.40;7.82;;;7.80;99.90;;;;;;4972736;28;20030;-83
2022/09/30 07:25:27;;;;;;;11.90;8.38;;;8.00;99.90;;;;;;4973950;28;20474;-84
2022/09/30 07:27:56;;;;;;;9.98;7.75;;;8.00;99.90;;;;;;4971844;28;20370;-84
2022/09/30 07:30:23;;;;;;;12.32;9.25;;;8.10;99.90;;;;;;4972534;28;20018;-84
2022/09/30 07:32:49;;;;;;;13.80;10.75;;;8.20;99.90;;;;;;4970916;28;20382;-82
2022/09/30 07:35:15;;;;;;;13.35;10.65;;;8.20;99.90;;;;;;4971537;28;20031;-83
2022/09/30 07:37:40;;;;;;;11.43;9.40;;;8.30;99.90;;;;;;4970729;28;20027;-83
2022/09/30 07:40:08;;;;;;;11.40;9.15;;;8.40;99.90;;;;;;4973025;28;20022;-83
2022/09/30 07:42:38;;;;;;;11.35;9.30;;;8.50;99.90;;;;;;4971610;28;20026;-83
2022/09/30 07:45:04;;;;;;;11.55;9.52;;;8.60;99.90;;;;;;4971536;28;20014;-83
2022/09/30 07:47:31;;;;;;;13.82;11.10;;;8.70;99.90;;;;;;4971953;28;20087;-84
2022/09/30 07:49:58;;;;;;;14.25;9.98;;;8.80;99.90;;;;;;4971854;28;20015;-83
2022/09/30 07:52:24;;;;;;;12.07;9.55;;;8.80;99.90;;;;;;4972137;28;20093;-83
2022/09/30 07:54:50;;;;;;;12.60;9.60;;;9.00;99.90;;;;;;4972625;28;20454;-84
2022/09/30 07:57:15;;;;;;;18.40;15.18;;;9.00;99.90;;;;;;4971317;28;20445;-83
2022/09/30 07:59:42;;;;;;;18.73;15.70;;;9.10;99.90;;;;;;4972517;28;20019;-82
2022/09/30 08:02:19;;;;;;;18.58;14.98;;;9.20;99.90;;;;;;4977405;28;20027;-84
2022/09/30 08:04:45;;;;;;;17.65;14.00;;;9.40;99.90;;;;;;4976480;28;20022;-83
2022/09/30 08:07:13;;;;;;;15.35;12.70;;;9.40;99.90;;;;;;4958728;28;20081;-83
2022/09/30 08:09:41;;;;;;;14.15;11.88;;;9.50;99.90;;;;;;4975427;28;20025;-82
2022/09/30 08:12:08;;;;;;;13.15;11.73;;;9.70;99.90;;;;;;4977111;28;20118;-82
2022/09/30 08:14:34;;;;;;;16.38;12.20;;;9.80;99.90;;;;;;4991352;28;20034;-80
2022/09/30 08:17:00;;;;;;;14.70;12.30;;;9.90;99.90;;;;;;4992715;28;20034;-81
2022/09/30 08:19:28;;;;;;;15.38;12.18;;;9.90;99.90;;;;;;4979956;28;20349;-83
2022/09/30 08:21:54;;;;;;;15.02;12.50;;;10.10;99.90;;;;;;4976800;28;20027;-83
2022/09/30 08:24:22;;;;;;;16.00;12.88;;;10.20;99.90;;;;;;4975739;28;20034;-83
2022/09/30 08:26:47;;;;;;;13.88;11.75;;;10.30;99.90;;;;;;4974960;28;20022;-81
2022/09/30 08:29:13;;;;;;;13.90;11.85;;;10.40;99.90;;;;;;4976093;28;20369;-83
2022/09/30 08:31:41;;;;;;;18.90;16.20;;;10.60;99.90;;;;;;4958913;28;20030;-84
2022/09/30 08:34:08;;;;;;;17.98;15.18;;;10.60;99.90;;;;;;4981061;28;20062;-83
2022/09/30 08:36:34;;;;;;;19.13;16.95;;;10.70;99.90;;;;;;4965840;28;20384;-83
2022/09/30 08:39:00;;;;;;;19.60;17.38;;;10.90;99.90;;;;;;4976348;28;20030;-83
2022/09/30 08:41:29;;;;;;;16.83;15.00;;;11.00;99.90;;;;;;4960185;28;20027;-82
2022/09/30 08:44:27;;;;;;;15.10;13.38;;;11.10;99.90;;;;;;4974632;28;20026;-83
2022/09/30 08:47:14;;;;;;;20.02;15.40;;;11.20;99.90;;;;;;4954247;28;20062;-83
2022/09/30 08:50:09;;;;;;;15.77;14.02;;;11.40;99.90;;;;;;4973793;28;20083;-83
2022/09/30 08:52:40;;;;;;;15.60;13.98;;;11.50;99.90;;;;;;4969315;28;20048;-82
2022/09/30 08:55:07;;;;;;;14.35;12.85;;;11.60;99.90;;;;;;4974944;28;20034;-81
2022/09/30 08:57:42;;;;;;;14.63;12.98;;;11.70;99.90;;;;;;4974097;28;20049;-81
2022/09/30 09:00:12;;;;;;;18.20;16.20;;;11.90;99.90;;;;;;4976729;28;20041;-82
2022/09/30 09:03:00;;;;;;;17.10;15.30;;;12.00;99.90;;;;;;4975967;28;20458;-82
2022/09/30 09:05:55;;;;;;;14.82;12.98;;;12.10;99.90;;;;;;4960937;28;20081;-82
2022/09/30 09:08:40;;;;;;;13.43;12.02;;;12.30;99.90;;;;;;4974074;28;20023;-82
2022/09/30 09:11:36;;;;;;;11.30;10.10;;;12.40;99.90;;;;;;4977856;28;20296;-82
2022/09/30 09:14:40;;;;;;;11.50;9.60;;;12.50;99.90;;;;;;4966376;28;20034;-83
2022/09/30 09:17:11;;;;;;;12.40;11.10;;;12.70;99.90;;;;;;4975537;28;20058;-83
2022/09/30 09:20:01;;;;;;;15.35;13.32;;;12.90;99.90;;;;;;4975346;28;20123;-83
2022/09/30 09:22:29;;;;;;;12.32;11.02;;;14.00;99.90;;;;;;4974567;28;20042;-83
2022/09/30 09:24:55;;;;;;;10.63;9.25;;;15.90;99.90;;;;;;4974888;28;20050;-83
2022/09/30 09:27:42;;;;;;;9.00;8.07;;;17.50;99.90;;;;;;4991058;28;20113;-82
2022/09/30 09:30:15;;;;;;;8.70;7.25;;;18.90;99.90;;;;;;4975300;28;20076;-83
2022/09/30 09:32:43;;;;;;;7.15;6.32;;;20.00;99.90;;;;;;4975257;28;20023;-83
2022/09/30 09:35:21;;;;;;;9.38;8.35;;;20.80;99.90;;;;;;4975013;28;20040;-83
2022/09/30 09:41:01;;;;;;;9.90;8.05;;;21.80;99.90;;;;;;4976309;28;20378;-83
2022/09/30 09:43:49;;;;;;;8.15;6.03;;;22.10;99.90;;;;;;4975170;28;20027;-84
2022/09/30 09:46:41;;;;;;;7.68;6.40;;;22.40;99.90;;;;;;4975906;28;20467;-84
2022/09/30 09:49:27;;;;;;;5.70;4.68;;;22.50;99.90;;;;;;4971641;28;20039;-84
2022/09/30 09:52:16;;;;;;;8.90;6.68;;;23.00;99.90;;;;;;4974528;28;20022;-84
2022/09/30 09:54:45;;;;;;;5.30;4.50;;;23.20;99.90;;;;;;4974110;28;20050;-83
2022/09/30 09:57:17;;;;;;;6.95;6.25;;;23.20;99.90;;;;;;4974693;28;20065;-83
2022/09/30 10:03:09;;;;;;;4.32;3.50;;;24.10;99.90;;;;;;4976039;28;20085;-83
2022/09/30 10:05:38;;;;;;;5.28;3.88;;;24.60;99.90;;;;;;4961161;28;20467;-82
2022/09/30 10:08:21;;;;;;;6.07;4.82;;;24.80;99.90;;;;;;4976101;28;20093;-82
2022/09/30 10:10:50;;;;;;;6.03;4.88;;;25.10;99.90;;;;;;4976637;28;20007;-83
2022/09/30 10:13:24;;;;;;;4.28;3.70;;;25.40;99.90;;;;;;4986264;28;20120;-81
2022/09/30 10:15:52;;;;;;;6.10;4.47;;;25.60;99.90;;;;;;4994673;28;20029;-82
2022/09/30 10:18:26;;;;;;;7.97;6.28;;;25.70;99.90;;;;;;4999040;28;20071;-81
2022/09/30 10:21:16;;;;;;;5.80;4.93;;;25.70;99.90;;;;;;4995675;28;20118;-83
2022/09/30 10:23:43;;;;;;;5.90;3.85;;;25.60;99.90;;;;;;4974292;28;20122;-83
2022/09/30 10:26:23;;;;;;;4.13;2.95;;;25.80;99.90;;;;;;4975246;28;20105;-83
2022/09/30 10:29:03;;;;;;;7.57;5.47;;;26.10;99.90;;;;;;4974968;28;20038;-83
2022/09/30 10:31:40;;;;;;;7.38;5.20;;;26.30;98.80;;;;;;4973871;28;20748;-83
2022/09/30 10:34:26;;;;;;;3.97;2.70;;;26.00;98.00;;;;;;4973711;28;20099;-83
2022/09/30 10:36:52;;;;;;;5.18;3.13;;;25.80;98.70;;;;;;4989354;28;20048;-82
2022/09/30 10:39:26;;;;;;;3.35;2.88;;;26.00;98.60;;;;;;4973794;28;20658;-83
2022/09/30 10:42:00;;;;;;;4.05;3.47;;;26.50;98.10;;;;;;4973827;28;20077;-82
2022/09/30 10:44:29;;;;;;;4.63;3.20;;;26.50;97.60;;;;;;4957823;28;20035;-83
2022/09/30 10:47:01;;;;;;;5.20;3.05;;;26.10;97.40;;;;;;4960131;28;20029;-82
2022/09/30 10:49:38;;;;;;;4.22;3.10;;;26.30;97.70;;;;;;4983154;28;20019;-81
2022/09/30 10:52:05;;;;;;;4.22;2.83;;;26.60;97.30;;;;;;4978031;28;20015;-82
2022/09/30 10:54:38;;;;;;;4.57;3.17;;;26.90;96.90;;;;;;4957753;28;20054;-82
2022/09/30 10:57:12;;;;;;;3.10;2.50;;;27.10;96.50;;;;;;4987214;28;20039;-83
2022/09/30 10:59:41;;;;;;;3.85;2.63;;;27.30;96.30;;;;;;4973835;28;20765;-82
2022/09/30 11:02:25;;;;;;;3.05;2.25;;;27.20;95.90;;;;;;4971073;28;20143;-83
2022/09/30 11:05:18;;;;;;;2.92;1.90;;;27.40;96.00;;;;;;4984862;28;20118;-83
2022/09/30 11:08:11;;;;;;;6.18;2.83;;;27.40;96.10;;;;;;4972633;28;20361;-83
2022/09/30 11:11:03;;;;;;;5.57;2.78;;;27.10;95.40;;;;;;4986425;28;20106;-83
2022/09/30 11:13:41;;;;;;;3.33;2.22;;;27.10;95.20;;;;;;4973973;28;20018;-84
2022/09/30 11:16:18;;;;;;;2.40;2.08;;;27.20;95.40;;;;;;4974489;28;20458;-84
2022/09/30 11:18:58;;;;;;;2.95;2.10;;;27.40;95.10;;;;;;4988104;28;20454;-83
2022/09/30 11:21:42;;;;;;;2.47;2.28;;;27.50;95.00;;;;;;4971914;28;20042;-83
2022/09/30 11:24:16;;;;;;;3.10;2.50;;;27.50;94.40;;;;;;4972049;28;20039;-83
2022/09/30 11:26:50;;;;;;;4.40;2.60;;;27.30;94.60;;;;;;4971481;28;20133;-84
2022/09/30 11:29:52;;;;;;;5.93;3.58;;;27.10;94.60;;;;;;4973698;28;20050;-83
2022/09/30 11:32:54;;;;;;;6.78;4.00;;;27.00;94.30;;;;;;4982460;28;20026;-82
2022/09/30 11:35:53;;;;;;;4.35;3.00;;;27.30;93.90;;;;;;4976583;28;20030;-83
2022/09/30 11:38:27;;;;;;;3.40;2.72;;;27.10;94.10;;;;;;4977479;28;20106;-83
2022/09/30 11:41:14;;;;;;;4.05;3.28;;;26.20;94.40;;;;;;4992469;28;20018;-82
2022/09/30 11:43:51;;;;;;;5.93;3.15;;;26.00;94.70;;;;;;4960015;28;20034;-81
2022/09/30 11:46:22;;;;;;;4.07;3.10;;;26.30;94.50;;;;;;4973731;28;20111;-82
2022/09/30 11:49:06;;;;;;;4.88;3.65;;;26.80;94.10;;;;;;4982700;28;20034;-82
2022/09/30 11:51:51;;;;;;;4.40;2.78;;;26.90;93.60;;;;;;4976094;28;20065;-82
2022/09/30 11:54:21;;;;;;;2.63;2.00;;;27.30;93.30;;;;;;4973303;28;20162;-82
2022/09/30 11:57:14;;;;;;;3.10;2.17;;;26.90;93.90;;;;;;4976249;28;20042;-82
2022/09/30 11:59:51;;;;;;;3.83;2.10;;;27.40;93.50;;;;;;4977073;28;20030;-82
2022/09/30 12:02:49;;;;;;;5.53;4.28;;;27.90;93.50;;;;;;4992615;28;20075;-83
2022/09/30 12:05:32;;;;;;;4.05;3.17;;;27.20;92.30;;;;;;4974709;28;20019;-82
2022/09/30 12:08:05;;;;;;;3.08;2.30;;;26.10;93.60;;;;;;4977231;28;20023;-82
2022/09/30 12:11:12;;;;;;;3.70;2.40;;;26.50;94.00;;;;;;4976416;28;20019;-82
2022/09/30 12:13:51;;;;;;;3.58;2.28;;;27.20;93.50;;;;;;4977949;28;20030;-80
2022/09/30 12:16:22;;;;;;;3.13;1.55;;;26.90;92.80;;;;;;4987944;28;20015;-82
2022/09/30 12:19:00;;;;;;;4.10;1.65;;;26.80;93.50;;;;;;4975498;28;20172;-81
2022/09/30 12:21:33;;;;;;;2.13;1.30;;;27.40;93.10;;;;;;4983688;28;20018;-81
2022/09/30 12:24:01;;;;;;;;;;;26.60;93.40;;;;;;4977054;28;20109;-82
2022/09/30 12:26:27;;;;;;;1.42;1.30;;;26.40;93.80;;;;;;4975519;28;20326;-81
2022/09/30 12:32:15;;;;;;;2.35;1.58;;;25.70;94.10;;;;;;4974479;28;20112;-82
2022/09/30 12:35:09;;;;;;;2.83;1.45;;;24.60;95.10;;;;;;4974256;28;20746;-82
2022/09/30 12:38:15;;;;;;;1.58;1.15;;;23.80;95.70;;;;;;4958834;28;20494;-81
2022/09/30 12:40:55;;;;;;;1.48;0.80;;;24.50;96.20;;;;;;4895476;29;20035;-80
2022/09/30 12:43:40;;;;;;;1.52;0.90;;;25.50;95.70;;;;;;4957125;28;20486;-82
2022/09/30 12:46:29;;;;;;;0.85;0.80;;;26.30;95.00;;;;;;4984611;28;20065;-80
2022/09/30 12:49:03;;;;;;;1.33;0.80;;;26.50;94.20;;;;;;4969326;28;20241;-81
2022/09/30 12:51:31;;;;;;;1.13;0.70;;;26.70;94.40;;;;;;4970222;28;20027;-81
2022/09/30 12:54:06;;;;;;;1.27;0.70;;;27.10;94.20;;;;;;4969112;28;20039;-81
2022/09/30 12:56:33;;;;;;;1.23;0.60;;;27.60;93.70;;;;;;4985728;28;20133;-81
2022/09/30 12:59:00;;;;;;;1.40;0.55;;;27.90;93.30;;;;;;4971839;28;20027;-82
2022/09/30 13:01:34;;;;;;;1.95;0.77;;;28.20;93.00;;;;;;4959752;28;20084;-81
2022/09/30 13:04:17;;;;;;;1.13;0.70;;;27.40;92.60;;;;;;4978835;28;20105;-81
2022/09/30 13:06:48;;;;;;;1.02;0.50;;;27.10;93.00;;;;;;4971144;28;20644;-80
2022/09/30 13:09:33;;;;;;;0.88;0.55;;;27.30;93.30;;;;;;4969868;28;20105;-80
2022/09/30 13:12:02;;;;;;;0.85;0.60;;;28.00;93.20;;;;;;4985427;28;20031;-81
2022/09/30 13:14:42;;;;;;;1.38;0.90;;;28.50;92.50;;;;;;4969314;28;20462;-81
2022/09/30 13:17:11;;;;;;;0.90;0.50;;;28.10;90.60;;;;;;4969666;28;20033;-81
2022/09/30 13:19:44;;;;;;;0.70;0.50;;;27.00;92.00;;;;;;4984162;28;20027;-81
2022/09/30 13:22:29;;;;;;;1.27;0.50;;;26.90;92.40;;;;;;4986050;28;20047;-80
2022/09/30 13:27:42;;;;;;;0.75;0.55;;;25.10;93.70;;;;;;4971171;28;20052;-82
2022/09/30 13:30:14;;;;;;;0.68;0.60;;;24.70;94.50;;;;;;4969714;28;20089;-82
2022/09/30 13:32:44;;;;;;;1.60;0.73;;;24.90;95.00;;;;;;4968727;28;20027;-83
2022/09/30 13:35:31;;;;;;;1.10;0.65;;;25.50;94.70;;;;;;4955663;28;20062;-83
2022/09/30 13:38:16;;;;;;;1.35;0.75;;;25.00;94.00;;;;;;4983097;28;20023;-80